createdAt,value
2022-12-06T00:01:28.892Z,163.23
2022-12-06T00:03:58.622Z,157.43
2022-12-06T00:06:28.544Z,152.10
2022-12-06T00:08:57.608Z,158.17
2022-12-06T00:11:29.301Z,154.80
2022-12-06T00:13:58.831Z,155.33
2022-12-06T00:16:28.118Z,145.03
2022-12-06T00:18:56.359Z,148.57
2022-12-06T00:21:26.143Z,151.70
2022-12-06T00:23:55.721Z,146.27
2022-12-06T00:26:24.302Z,152.70
2022-12-06T00:28:55.691Z,132.50
2022-12-06T00:31:25.806Z,147.50
2022-12-06T00:33:54.315Z,146.80
2022-12-06T00:36:25.188Z,142.83
2022-12-06T00:38:53.323Z,147.87
2022-12-06T00:41:23.438Z,142.63
2022-12-06T00:43:52.057Z,140.70
2022-12-06T00:46:23.629Z,138.30
2022-12-06T00:48:52.582Z,138.97
2022-12-06T00:51:21.897Z,143.93
2022-12-06T00:53:50.747Z,153.20
2022-12-06T00:56:19.599Z,183.33
2022-12-06T00:58:47.823Z,177.10
2022-12-06T01:01:18.359Z,174.50
2022-12-06T01:03:51.353Z,168.50
2022-12-06T01:06:22.725Z,177.20
2022-12-06T01:08:50.974Z,164.47
2022-12-06T01:11:21.463Z,163.77
2022-12-06T01:13:49.699Z,171.23
2022-12-06T01:16:20.769Z,148.87
2022-12-06T01:18:54.128Z,153.80
2022-12-06T01:21:22.867Z,165.47
2022-12-06T01:23:51.904Z,159.77
2022-12-06T01:26:22.736Z,172.23
2022-12-06T01:28:50.779Z,173.23
2022-12-06T01:31:19.327Z,162.67
2022-12-06T01:33:49.060Z,166.77
2022-12-06T01:36:18.494Z,164.63
2022-12-06T01:38:51.038Z,163.47
2022-12-06T01:41:20.002Z,149.07
2022-12-06T01:43:48.868Z,145.80
2022-12-06T01:46:26.087Z,144.30
2022-12-06T01:49:01.660Z,138.50
2022-12-06T01:51:30.454Z,126.40
2022-12-06T01:54:00.434Z,111.97
2022-12-06T01:56:28.787Z,100.87
2022-12-06T01:58:59.452Z,93.37
2022-12-06T02:01:29.275Z,90.27
2022-12-06T02:04:01.734Z,93.13
2022-12-06T02:06:31.353Z,98.77
2022-12-06T02:09:02.029Z,100.30
2022-12-06T02:11:34.934Z,103.43
2022-12-06T02:14:05.677Z,96.53
2022-12-06T02:16:52.888Z,102.37
2022-12-06T02:19:49.081Z,109.47
2022-12-06T02:22:23.232Z,108.03
2022-12-06T02:25:31.568Z,104.43
2022-12-06T02:28:41.051Z,96.83
2022-12-06T02:31:13.989Z,95.63
2022-12-06T02:33:46.967Z,89.30
2022-12-06T02:36:20.617Z,83.73
2022-12-06T02:38:52.075Z,92.30
2022-12-06T02:41:25.149Z,87.07
2022-12-06T02:43:59.714Z,83.93
2022-12-06T02:46:33.832Z,82.03
2022-12-06T02:49:05.080Z,83.80
2022-12-06T02:51:35.976Z,78.37
2022-12-06T02:54:06.852Z,81.30
2022-12-06T02:56:35.793Z,83.67
2022-12-06T02:59:03.797Z,81.93
2022-12-06T03:01:36.880Z,83.80
2022-12-06T03:04:32.492Z,85.90
2022-12-06T03:07:11.092Z,77.13
2022-12-06T03:09:50.493Z,79.57
2022-12-06T03:12:26.145Z,75.07
2022-12-06T03:15:06.122Z,74.33
2022-12-06T03:17:43.503Z,72.10
2022-12-06T03:20:15.187Z,67.87
2022-12-06T03:22:48.101Z,67.07
2022-12-06T03:25:17.236Z,70.67
2022-12-06T03:27:46.539Z,68.10
2022-12-06T03:30:15.834Z,65.83
2022-12-06T03:32:47.990Z,62.77
2022-12-06T03:35:19.194Z,64.07
2022-12-06T03:37:52.111Z,60.20
2022-12-06T03:40:25.106Z,64.87
2022-12-06T03:42:54.118Z,63.70
2022-12-06T03:45:27.984Z,66.47
2022-12-06T03:48:03.984Z,75.20
2022-12-06T03:50:37.050Z,70.10
2022-12-06T03:53:05.249Z,73.00
2022-12-06T03:55:33.286Z,69.70
2022-12-06T03:58:01.298Z,70.83
2022-12-06T04:00:29.283Z,72.77
2022-12-06T04:02:58.651Z,73.00
2022-12-06T04:05:26.863Z,69.90
2022-12-06T04:07:54.914Z,64.13
2022-12-06T04:10:23.095Z,64.83
2022-12-06T04:13:05.251Z,67.67
2022-12-06T04:15:36.186Z,65.97
2022-12-06T04:18:14.023Z,59.87
2022-12-06T04:21:02.931Z,57.63
2022-12-06T04:23:33.212Z,56.43
2022-12-06T04:26:01.485Z,53.53
2022-12-06T04:28:47.197Z,55.10
2022-12-06T04:31:33.337Z,53.63
2022-12-06T04:34:20.345Z,51.93
2022-12-06T04:37:06.297Z,54.50
2022-12-06T04:39:34.798Z,52.23
2022-12-06T04:42:20.703Z,50.17
2022-12-06T04:44:48.914Z,46.73
2022-12-06T04:47:17.259Z,51.23
2022-12-06T04:49:46.665Z,54.23
2022-12-06T04:52:15.232Z,46.50
2022-12-06T04:54:43.948Z,52.23
2022-12-06T04:57:13.865Z,49.73
2022-12-06T04:59:43.339Z,47.47
2022-12-06T05:02:13.682Z,47.93
2022-12-06T05:04:41.665Z,48.67
2022-12-06T05:07:11.652Z,50.13
2022-12-06T05:09:39.994Z,49.53
2022-12-06T05:12:08.750Z,50.87
2022-12-06T05:14:37.048Z,58.00
2022-12-06T05:17:05.121Z,54.47
2022-12-06T05:19:33.121Z,52.33
2022-12-06T05:22:01.160Z,51.73
2022-12-06T05:24:30.553Z,47.47
2022-12-06T05:26:58.598Z,51.27
2022-12-06T05:29:27.165Z,56.80
2022-12-06T05:31:55.238Z,47.73
2022-12-06T05:34:24.766Z,50.83
2022-12-06T05:36:52.774Z,49.23
2022-12-06T05:39:20.831Z,50.33
2022-12-06T05:41:50.171Z,46.90
2022-12-06T05:44:18.257Z,50.03
2022-12-06T05:46:46.340Z,49.40
2022-12-06T05:49:16.977Z,43.90
2022-12-06T05:51:45.341Z,45.37
2022-12-06T05:54:13.398Z,47.73
2022-12-06T05:56:41.411Z,44.00
2022-12-06T05:59:10.773Z,43.00
2022-12-06T06:01:39.214Z,47.00
2022-12-06T06:04:07.247Z,44.57
2022-12-06T06:06:35.248Z,43.40
2022-12-06T06:09:03.283Z,47.27
2022-12-06T06:11:31.270Z,48.20
2022-12-06T06:13:59.600Z,46.07
2022-12-06T06:16:28.995Z,45.63
2022-12-06T06:18:57.124Z,44.77
2022-12-06T06:21:25.277Z,44.30
2022-12-06T06:23:53.303Z,44.80
2022-12-06T06:26:21.343Z,45.20
2022-12-06T06:28:49.417Z,48.53
2022-12-06T06:31:17.511Z,44.73
2022-12-06T06:33:46.949Z,46.80
2022-12-06T06:36:16.070Z,47.40
2022-12-06T06:38:44.054Z,49.07
2022-12-06T06:41:12.264Z,49.17
2022-12-06T06:43:43.449Z,51.17
2022-12-06T06:46:11.584Z,49.20
2022-12-06T06:48:40.843Z,47.20
2022-12-06T06:51:13.543Z,50.60
2022-12-06T06:53:41.641Z,51.80
2022-12-06T06:56:10.071Z,49.60
2022-12-06T06:58:38.206Z,50.10
2022-12-06T07:01:08.042Z,49.37
2022-12-06T07:03:36.816Z,50.70
2022-12-06T07:06:08.687Z,49.27
2022-12-06T07:08:39.268Z,49.30
2022-12-06T07:11:07.924Z,46.77
2022-12-06T07:13:36.986Z,45.97
2022-12-06T07:16:06.609Z,54.07
2022-12-06T07:18:34.890Z,51.00
2022-12-06T07:21:05.102Z,56.83
2022-12-06T07:23:34.628Z,55.20
2022-12-06T07:26:07.023Z,53.00
2022-12-06T07:28:37.586Z,50.27
2022-12-06T07:31:09.949Z,49.70
2022-12-06T07:33:38.963Z,54.67
2022-12-06T07:36:13.256Z,51.53
2022-12-06T07:38:43.259Z,52.90
2022-12-06T07:41:32.400Z,49.80
2022-12-06T07:44:28.206Z,46.27
2022-12-06T07:46:56.913Z,48.50
2022-12-06T07:49:28.190Z,45.07
2022-12-06T07:51:57.384Z,48.30
2022-12-06T07:54:26.538Z,46.93
2022-12-06T07:56:57.585Z,42.20
2022-12-06T07:59:26.426Z,43.20
2022-12-06T08:01:54.906Z,46.87
2022-12-06T08:04:23.035Z,41.27
2022-12-06T08:06:51.140Z,43.10
2022-12-06T08:09:19.879Z,39.00
2022-12-06T08:11:47.949Z,36.67
2022-12-06T08:14:19.975Z,37.67
2022-12-06T08:16:47.995Z,38.53
2022-12-06T08:19:16.019Z,37.53
2022-12-06T08:21:44.024Z,34.17
2022-12-06T08:24:13.075Z,34.87
2022-12-06T08:26:43.275Z,36.57
2022-12-06T08:29:11.341Z,35.60
2022-12-06T08:31:40.983Z,35.27
2022-12-06T08:34:09.301Z,34.63
2022-12-06T08:36:40.066Z,37.30
2022-12-06T08:39:09.329Z,34.17
2022-12-06T08:41:54.983Z,31.73
2022-12-06T08:44:23.717Z,33.77
2022-12-06T08:46:54.643Z,36.67
2022-12-06T08:49:24.118Z,36.10
2022-12-06T08:51:52.774Z,32.97
2022-12-06T08:54:22.963Z,35.00
2022-12-06T08:56:51.980Z,34.97
2022-12-06T08:59:20.379Z,35.00
2022-12-06T09:01:49.205Z,32.57
2022-12-06T09:04:18.907Z,33.10
2022-12-06T09:06:48.017Z,32.80
2022-12-06T09:09:18.551Z,31.17
2022-12-06T09:11:49.678Z,30.37
2022-12-06T09:14:21.811Z,29.10
2022-12-06T09:16:51.728Z,29.77
2022-12-06T09:19:24.022Z,29.97
2022-12-06T09:21:52.192Z,31.73
2022-12-06T09:24:20.671Z,31.33
2022-12-06T09:26:48.702Z,30.03
2022-12-06T09:29:18.356Z,29.60
2022-12-06T09:31:46.550Z,30.83
2022-12-06T09:34:15.003Z,28.20
2022-12-06T09:36:47.928Z,26.87
2022-12-06T09:39:22.023Z,26.93
2022-12-06T09:42:16.975Z,25.13
2022-12-06T09:45:22.084Z,23.83
2022-12-06T09:48:04.105Z,25.53
2022-12-06T09:50:45.082Z,24.03
2022-12-06T09:53:23.769Z,25.33
2022-12-06T09:56:03.798Z,26.00
2022-12-06T09:58:46.845Z,25.90
2022-12-06T10:01:22.805Z,23.10
2022-12-06T10:04:00.100Z,23.63
2022-12-06T10:06:36.384Z,24.13
2022-12-06T10:09:26.540Z,26.07
2022-12-06T10:12:11.802Z,24.07
2022-12-06T10:14:55.739Z,24.17
2022-12-06T10:17:30.199Z,23.63
2022-12-06T10:20:06.918Z,23.17
2022-12-06T10:22:47.819Z,24.33
2022-12-06T10:25:25.704Z,22.03
2022-12-06T10:28:09.000Z,22.83
2022-12-06T10:30:43.522Z,20.83
2022-12-06T10:33:20.868Z,21.63
2022-12-06T10:35:54.431Z,23.57
2022-12-06T10:38:29.328Z,21.67
2022-12-06T10:41:17.404Z,21.07
2022-12-06T10:43:53.890Z,22.27
2022-12-06T10:46:45.589Z,23.17
2022-12-06T10:49:23.315Z,22.10
2022-12-06T10:51:59.344Z,22.00
2022-12-06T10:54:34.260Z,23.13
2022-12-06T10:57:08.349Z,22.90
2022-12-06T10:59:40.923Z,21.63
2022-12-06T11:02:23.108Z,22.63
2022-12-06T11:04:53.924Z,21.10
2022-12-06T11:07:28.037Z,20.70
2022-12-06T11:09:57.907Z,19.77
2022-12-06T11:12:33.844Z,20.90
2022-12-06T11:15:08.307Z,21.87
2022-12-06T11:17:40.527Z,21.13
2022-12-06T11:20:23.398Z,20.40
2022-12-06T11:23:05.912Z,19.40
2022-12-06T11:25:42.654Z,21.77
2022-12-06T11:28:24.445Z,20.97
2022-12-06T11:30:57.180Z,20.90
2022-12-06T11:33:30.849Z,21.20
2022-12-06T11:36:02.187Z,21.27
2022-12-06T11:38:30.500Z,23.03
2022-12-06T11:41:00.042Z,22.47
2022-12-06T11:43:35.208Z,25.47
2022-12-06T11:46:04.775Z,23.80
2022-12-06T11:48:35.981Z,24.00
2022-12-06T11:51:04.370Z,24.53
2022-12-06T11:53:36.546Z,22.67
2022-12-06T11:56:11.516Z,24.47
2022-12-06T11:58:47.876Z,23.57
2022-12-06T12:01:15.907Z,25.20
2022-12-06T12:03:48.715Z,24.27
2022-12-06T12:06:22.927Z,25.10
2022-12-06T12:08:59.721Z,25.47
2022-12-06T12:11:30.111Z,25.53
2022-12-06T12:14:03.583Z,25.10
2022-12-06T12:16:35.683Z,26.33
2022-12-06T12:19:07.088Z,25.83
2022-12-06T12:21:39.159Z,24.83
2022-12-06T12:24:28.248Z,27.40
2022-12-06T12:26:56.492Z,28.10
2022-12-06T12:29:25.864Z,27.27
2022-12-06T12:31:57.254Z,29.70
2022-12-06T12:34:27.775Z,30.27
2022-12-06T12:36:58.266Z,29.40
2022-12-06T12:39:34.282Z,26.70
2022-12-06T12:42:03.277Z,27.77
2022-12-06T12:44:38.415Z,30.43
2022-12-06T12:47:18.721Z,34.70
2022-12-06T12:50:01.748Z,31.23
2022-12-06T12:52:31.767Z,30.70
2022-12-06T12:55:01.935Z,32.40
2022-12-06T12:57:30.333Z,33.10
2022-12-06T13:00:02.135Z,34.43
2022-12-06T13:02:32.090Z,35.47
2022-12-06T13:05:37.451Z,38.40
2022-12-06T13:08:02.103Z,37.73
2022-12-06T13:10:34.400Z,33.33
2022-12-06T13:13:04.752Z,29.93
2022-12-06T13:15:36.774Z,19.57
2022-12-06T13:18:12.375Z,17.87
2022-12-06T13:20:42.116Z,13.57
2022-12-06T13:23:16.304Z,10.37
2022-12-06T13:25:48.688Z,11.40
2022-12-06T13:28:19.962Z,11.67
2022-12-06T13:30:55.373Z,10.17
2022-12-06T13:33:26.660Z,10.00
2022-12-06T13:36:00.384Z,10.37
2022-12-06T13:38:32.151Z,7.93
2022-12-06T13:41:01.485Z,9.43
2022-12-06T13:43:59.336Z,8.43
2022-12-06T13:46:34.341Z,8.97
2022-12-06T13:49:05.576Z,9.60
2022-12-06T13:51:48.005Z,8.60
2022-12-06T13:54:30.558Z,9.17
2022-12-06T13:57:00.200Z,8.50
2022-12-06T13:59:40.099Z,8.30
2022-12-06T14:02:46.999Z,9.10
2022-12-06T14:08:20.322Z,12.43
2022-12-06T14:10:48.427Z,13.00
2022-12-06T14:13:18.949Z,14.10
2022-12-06T14:15:51.977Z,13.97
2022-12-06T14:18:23.700Z,13.97
2022-12-06T14:20:53.990Z,13.13
2022-12-06T14:23:29.176Z,13.43
2022-12-06T14:26:15.215Z,11.73
2022-12-06T14:28:43.819Z,12.27
2022-12-06T14:31:25.374Z,11.60
2022-12-06T14:33:54.450Z,11.47
2022-12-06T14:36:27.335Z,13.20
2022-12-06T14:39:03.281Z,12.37
2022-12-06T14:41:51.663Z,12.87
2022-12-06T14:44:20.851Z,14.30
2022-12-06T14:46:50.675Z,13.60
2022-12-06T14:49:38.843Z,16.37
2022-12-06T14:52:20.053Z,20.60
2022-12-06T14:54:50.191Z,21.43
2022-12-06T14:57:26.599Z,24.60
2022-12-06T15:00:27.113Z,17.67
2022-12-06T15:03:03.379Z,17.93
2022-12-06T15:05:36.403Z,17.37
2022-12-06T15:08:35.653Z,20.50
2022-12-06T15:11:35.905Z,17.97
2022-12-06T15:14:16.144Z,20.43
2022-12-06T15:16:45.946Z,18.23
2022-12-06T15:19:16.584Z,17.97
2022-12-06T15:21:44.583Z,17.93
2022-12-06T15:24:17.963Z,16.83
2022-12-06T15:26:47.357Z,18.73
2022-12-06T15:29:15.776Z,19.10
2022-12-06T15:31:46.547Z,22.87
2022-12-06T15:34:23.578Z,26.40
2022-12-06T15:37:08.931Z,33.50
2022-12-06T15:39:43.909Z,35.20
2022-12-06T15:42:21.532Z,30.80
2022-12-06T15:44:53.219Z,26.43
2022-12-06T15:47:21.246Z,23.20
2022-12-06T15:49:51.657Z,21.40
2022-12-06T15:52:23.553Z,21.63
2022-12-06T15:54:51.772Z,21.20
2022-12-06T15:57:21.632Z,21.77
2022-12-06T15:59:49.629Z,24.17
2022-12-06T16:02:19.265Z,25.10
2022-12-06T16:04:48.321Z,24.63
2022-12-06T16:07:21.860Z,28.93
2022-12-06T16:09:49.831Z,27.73
2022-12-06T16:12:18.157Z,25.37
2022-12-06T16:14:47.500Z,24.50
2022-12-06T16:17:15.575Z,26.70
2022-12-06T16:20:01.146Z,25.30
2022-12-06T16:22:43.276Z,28.30
2022-12-06T16:25:11.287Z,27.17
2022-12-06T16:27:39.375Z,27.93
2022-12-06T16:30:10.245Z,28.60
2022-12-06T16:32:38.242Z,29.63
2022-12-06T16:35:06.593Z,32.30
2022-12-06T16:37:34.630Z,30.87
2022-12-06T16:40:02.752Z,33.27
2022-12-06T16:42:30.776Z,32.70
2022-12-06T16:45:01.196Z,31.97
2022-12-06T16:49:57.983Z,33.27
2022-12-06T16:52:26.140Z,32.67
2022-12-06T16:54:54.141Z,35.83
2022-12-06T16:57:22.319Z,37.27
2022-12-06T16:59:50.707Z,39.57
2022-12-06T17:02:26.465Z,36.80
2022-12-06T17:04:56.440Z,37.83
2022-12-06T17:07:24.879Z,38.10
2022-12-06T17:09:53.056Z,35.13
2022-12-06T17:12:22.811Z,33.20
2022-12-06T17:14:51.305Z,31.90
2022-12-06T17:17:21.484Z,32.80
2022-12-06T17:19:50.566Z,31.80
2022-12-06T17:22:20.208Z,28.80
2022-12-06T17:24:48.291Z,29.63
2022-12-06T17:27:16.788Z,27.83
2022-12-06T17:29:45.387Z,29.10
2022-12-06T17:32:14.135Z,27.67
2022-12-06T17:34:42.253Z,27.30
2022-12-06T17:37:10.396Z,25.23
2022-12-06T17:39:43.076Z,24.43
2022-12-06T17:42:30.283Z,25.00
2022-12-06T17:44:58.877Z,25.93
2022-12-06T17:47:27.108Z,24.63
2022-12-06T17:49:56.393Z,24.60
2022-12-06T17:52:24.756Z,22.30
2022-12-06T17:54:54.158Z,22.07
2022-12-06T17:57:25.039Z,22.90
2022-12-06T17:59:53.023Z,23.20
2022-12-06T18:02:24.117Z,35.70
2022-12-06T18:04:52.607Z,29.57
2022-12-06T18:07:21.083Z,27.10
2022-12-06T18:09:49.862Z,25.07
2022-12-06T18:12:20.604Z,22.07
2022-12-06T18:14:48.865Z,23.63
2022-12-06T18:17:16.877Z,20.53
2022-12-06T18:19:48.760Z,21.70
2022-12-06T18:22:17.027Z,21.83
2022-12-06T18:24:45.370Z,22.73
2022-12-06T18:27:13.810Z,22.83
2022-12-06T18:29:43.445Z,22.33
2022-12-06T18:32:13.587Z,23.37
2022-12-06T18:34:42.726Z,22.57
2022-12-06T18:37:10.719Z,22.40
2022-12-06T18:39:38.715Z,21.17
2022-12-06T18:42:06.883Z,20.50
2022-12-06T18:44:34.875Z,19.63
2022-12-06T18:47:04.364Z,18.40
2022-12-06T18:49:32.560Z,17.53
2022-12-06T18:52:00.556Z,19.23
2022-12-06T18:54:28.591Z,19.30
2022-12-06T18:56:58.960Z,19.63
2022-12-06T18:59:27.977Z,19.17
2022-12-06T19:01:56.711Z,19.90
2022-12-06T19:04:26.173Z,18.80
2022-12-06T19:06:54.291Z,19.03
2022-12-06T19:09:23.176Z,18.93
2022-12-06T19:11:52.256Z,17.77
2022-12-06T19:14:23.796Z,18.43
2022-12-06T19:16:53.244Z,18.97
2022-12-06T19:19:23.304Z,18.83
2022-12-06T19:21:57.173Z,16.70
2022-12-06T19:24:26.725Z,18.87
2022-12-06T19:26:57.905Z,17.97
2022-12-06T19:29:26.511Z,18.40
2022-12-06T19:32:00.255Z,20.27
2022-12-06T19:34:30.135Z,18.07
2022-12-06T19:36:59.706Z,20.63
2022-12-06T19:39:27.852Z,19.07
2022-12-06T19:42:13.330Z,19.60
2022-12-06T19:44:42.488Z,22.27
2022-12-06T19:47:10.712Z,23.80
2022-12-06T19:49:41.314Z,21.27
2022-12-06T19:52:10.847Z,22.93
2022-12-06T19:54:40.367Z,23.07
2022-12-06T19:57:09.585Z,23.03
2022-12-06T19:59:39.485Z,22.57
2022-12-06T20:02:08.080Z,21.00
2022-12-06T20:04:41.729Z,22.60
2022-12-06T20:07:12.307Z,20.93
2022-12-06T20:09:40.353Z,23.40
2022-12-06T20:12:08.990Z,22.13
2022-12-06T20:14:39.579Z,21.17
2022-12-06T20:17:09.328Z,23.07
2022-12-06T20:19:40.212Z,20.37
2022-12-06T20:22:08.291Z,19.23
2022-12-06T20:24:38.121Z,21.63
2022-12-06T20:27:06.250Z,19.73
2022-12-06T20:29:34.299Z,18.27
2022-12-06T20:32:03.251Z,19.10
2022-12-06T20:34:33.839Z,19.37
2022-12-06T20:37:06.997Z,18.77
2022-12-06T20:39:37.260Z,18.97
2022-12-06T20:42:08.755Z,17.13
2022-12-06T20:44:36.873Z,19.67
2022-12-06T20:47:05.324Z,20.43
2022-12-06T20:49:33.448Z,19.33
2022-12-06T20:52:02.829Z,21.00
2022-12-06T20:54:30.944Z,17.70
2022-12-06T20:56:59.044Z,18.90
2022-12-06T20:59:29.344Z,15.73
2022-12-06T21:01:57.495Z,18.40
2022-12-06T21:04:26.128Z,18.70
2022-12-06T21:06:54.277Z,18.00
2022-12-06T21:09:23.082Z,16.43
2022-12-06T21:11:51.316Z,18.03
2022-12-06T21:14:19.582Z,15.63
2022-12-06T21:16:49.011Z,15.27
2022-12-06T21:19:19.417Z,15.20
2022-12-06T21:21:49.868Z,15.80
2022-12-06T21:24:20.440Z,17.57
2022-12-06T21:26:49.315Z,17.67
2022-12-06T21:29:18.699Z,15.90
2022-12-06T21:31:48.371Z,15.20
2022-12-06T21:34:16.638Z,15.30
2022-12-06T21:36:45.631Z,16.33
2022-12-06T21:39:15.108Z,16.90
2022-12-06T21:41:43.197Z,16.37
2022-12-06T21:44:11.303Z,15.10
2022-12-06T21:46:39.787Z,17.93
2022-12-06T21:49:10.671Z,15.80
2022-12-06T21:51:38.657Z,14.27
2022-12-06T21:54:06.900Z,16.00
2022-12-06T21:56:35.161Z,14.47
2022-12-06T21:59:03.429Z,15.23
2022-12-06T22:01:32.667Z,13.20
2022-12-06T22:04:02.965Z,12.90
2022-12-06T22:06:33.403Z,13.70
2022-12-06T22:09:03.319Z,14.53
2022-12-06T22:11:32.489Z,14.43
2022-12-06T22:14:01.698Z,13.03
2022-12-06T22:16:30.478Z,13.97
2022-12-06T22:18:58.728Z,15.73
2022-12-06T22:21:29.570Z,14.47
2022-12-06T22:24:00.042Z,13.60
2022-12-06T22:26:30.734Z,13.63
2022-12-06T22:29:00.010Z,15.83
2022-12-06T22:31:29.772Z,13.17
2022-12-06T22:33:58.626Z,12.07
2022-12-06T22:36:27.558Z,12.07
2022-12-06T22:38:59.768Z,11.70
2022-12-06T22:41:28.923Z,13.30
2022-12-06T22:43:58.968Z,12.80
2022-12-06T22:46:27.336Z,11.17
2022-12-06T22:48:58.862Z,11.60
2022-12-06T22:51:29.068Z,11.70
2022-12-06T22:54:00.342Z,12.13
2022-12-06T22:56:29.564Z,12.03
2022-12-06T22:58:59.609Z,11.67
2022-12-06T23:01:29.929Z,13.67
2022-12-06T23:04:01.661Z,12.23
2022-12-06T23:06:30.300Z,12.43
2022-12-06T23:08:59.796Z,13.67
2022-12-06T23:11:29.368Z,10.90
2022-12-06T23:13:58.586Z,11.13
2022-12-06T23:16:29.115Z,10.77
2022-12-06T23:18:57.616Z,11.17
2022-12-06T23:21:27.179Z,12.93
2022-12-06T23:23:59.117Z,12.07
2022-12-06T23:26:30.611Z,11.97
2022-12-06T23:28:58.690Z,13.00
2022-12-06T23:31:29.322Z,11.63
2022-12-06T23:34:01.908Z,11.60
2022-12-06T23:36:32.179Z,11.07
2022-12-06T23:39:00.556Z,11.63
2022-12-06T23:41:31.592Z,11.70
2022-12-06T23:44:00.304Z,11.27
2022-12-06T23:46:31.038Z,11.67
2022-12-06T23:48:59.743Z,13.03
2022-12-06T23:51:30.759Z,14.03
2022-12-06T23:54:00.201Z,14.23
2022-12-06T23:56:31.415Z,13.67
2022-12-06T23:59:00.395Z,13.10
